createdAt,value
2019-02-07T00:00:53.970Z,13.45
2019-02-07T00:01:58.548Z,13.25
2019-02-07T00:03:02.872Z,13.03
2019-02-07T00:04:07.398Z,13.10
2019-02-07T00:05:11.719Z,13.05
2019-02-07T00:06:16.639Z,13.32
2019-02-07T00:07:20.936Z,13.78
2019-02-07T00:08:25.234Z,13.32
2019-02-07T00:09:30.093Z,13.25
2019-02-07T00:10:36.851Z,13.65
2019-02-07T00:11:40.903Z,13.45
2019-02-07T00:12:45.467Z,13.28
2019-02-07T00:13:50.135Z,13.32
2019-02-07T00:14:54.838Z,12.20
2019-02-07T00:15:59.470Z,13.28
2019-02-07T00:17:03.794Z,12.93
2019-02-07T00:18:08.349Z,12.65
2019-02-07T00:19:12.913Z,13.78
2019-02-07T00:20:17.500Z,14.10
2019-02-07T00:21:22.345Z,12.80
2019-02-07T00:22:26.946Z,13.40
2019-02-07T00:23:31.240Z,12.13
2019-02-07T00:24:42.811Z,13.53
2019-02-07T00:25:42.657Z,12.75
2019-02-07T00:26:47.342Z,12.23
2019-02-07T00:27:51.953Z,13.43
2019-02-07T00:28:56.537Z,12.85
2019-02-07T00:30:01.124Z,13.55
2019-02-07T00:31:05.831Z,13.32
2019-02-07T00:32:10.850Z,13.10
2019-02-07T00:33:14.916Z,11.65
2019-02-07T00:34:19.500Z,11.88
2019-02-07T00:35:24.321Z,12.45
2019-02-07T00:36:28.636Z,11.68
2019-02-07T00:37:33.298Z,13.20
2019-02-07T00:38:38.425Z,12.68
2019-02-07T00:39:43.035Z,13.95
2019-02-07T00:40:47.900Z,13.00
2019-02-07T00:41:51.954Z,12.98
2019-02-07T00:42:56.055Z,12.50
2019-02-07T00:44:00.652Z,12.58
2019-02-07T00:45:05.527Z,12.58
2019-02-07T00:46:09.822Z,12.25
2019-02-07T00:47:14.637Z,12.03
2019-02-07T00:48:19.454Z,12.93
2019-02-07T00:52:01.846Z,12.33
2019-02-07T00:53:07.860Z,12.35
2019-02-07T00:54:13.090Z,11.55
2019-02-07T01:13:41.847Z,13.43
2019-02-07T01:45:12.840Z,12.90
2019-02-07T01:46:12.565Z,12.93
2019-02-07T01:47:17.248Z,12.93
2019-02-07T01:48:21.802Z,14.13
2019-02-07T01:49:26.391Z,14.28
2019-02-07T01:50:30.948Z,14.13
2019-02-07T01:51:36.137Z,14.15
2019-02-07T01:52:40.196Z,14.35
2019-02-07T01:53:44.880Z,14.53
2019-02-07T01:54:49.564Z,14.28
2019-02-07T01:55:53.839Z,15.63
2019-02-07T01:56:58.704Z,14.85
2019-02-07T01:58:03.286Z,13.03
2019-02-07T01:59:07.849Z,13.85
2019-02-07T02:00:14.197Z,13.25
2019-02-07T02:01:18.504Z,15.18
2019-02-07T02:02:23.078Z,14.28
2019-02-07T02:03:27.649Z,13.72
2019-02-07T02:04:34.541Z,13.28
2019-02-07T02:05:39.171Z,11.45
2019-02-07T02:06:43.727Z,15.18
2019-02-07T02:07:48.291Z,11.57
2019-02-07T02:08:53.107Z,14.45
2019-02-07T02:09:57.687Z,14.40
2019-02-07T02:11:02.058Z,13.13
2019-02-07T02:12:06.426Z,14.33
2019-02-07T02:13:10.768Z,13.38
2019-02-07T02:14:15.092Z,14.43
2019-02-07T02:15:24.645Z,14.38
2019-02-07T02:16:27.616Z,12.43
2019-02-07T02:17:31.922Z,12.88
2019-02-07T02:18:36.395Z,13.40
2019-02-07T02:19:40.977Z,14.18
2019-02-07T02:20:45.572Z,14.05
2019-02-07T02:21:50.195Z,14.80
2019-02-07T02:22:55.098Z,14.40
2019-02-07T02:23:59.642Z,14.40
2019-02-07T02:25:04.830Z,14.10
2019-02-07T02:26:09.402Z,14.45
2019-02-07T02:27:13.986Z,13.90
2019-02-07T02:28:18.836Z,14.03
2019-02-07T02:29:23.631Z,14.90
2019-02-07T02:30:31.005Z,13.32
2019-02-07T02:31:36.047Z,14.98
2019-02-07T02:32:40.344Z,15.03
2019-02-07T02:33:44.924Z,15.28
2019-02-07T02:34:49.544Z,14.70
2019-02-07T02:35:54.115Z,14.30
2019-02-07T02:36:58.411Z,14.43
2019-02-07T02:38:02.732Z,14.30
2019-02-07T02:39:09.196Z,15.20
2019-02-07T02:40:13.528Z,12.73
2019-02-07T02:41:18.106Z,16.48
2019-02-07T02:42:22.498Z,15.03
2019-02-07T02:43:27.417Z,14.50
2019-02-07T02:44:31.705Z,14.00
2019-02-07T02:45:37.843Z,15.18
2019-02-07T02:46:42.278Z,15.43
2019-02-07T02:47:47.036Z,15.58
2019-02-07T02:48:52.109Z,14.47
2019-02-07T02:49:56.784Z,15.98
2019-02-07T02:51:01.109Z,14.53
2019-02-07T02:52:05.666Z,16.10
2019-02-07T02:53:09.972Z,15.78
2019-02-07T02:54:51.682Z,15.83
2019-02-07T02:55:58.638Z,15.30
2019-02-07T02:57:03.012Z,15.45
2019-02-07T02:58:07.308Z,15.40
2019-02-07T02:59:11.954Z,15.40
2019-02-07T03:00:19.074Z,15.32
2019-02-07T03:01:42.446Z,14.85
2019-02-07T03:03:04.070Z,15.18
2019-02-07T03:04:39.135Z,15.78
2019-02-07T03:05:54.671Z,14.65
2019-02-07T03:07:23.751Z,15.28
2019-02-07T03:08:41.477Z,15.28
2019-02-07T03:10:03.805Z,15.78
2019-02-07T03:11:41.593Z,15.05
2019-02-07T03:13:03.344Z,15.60
2019-02-07T03:14:14.639Z,15.20
2019-02-07T03:15:49.330Z,15.40
2019-02-07T03:16:58.510Z,16.10
2019-02-07T03:18:33.768Z,14.60
2019-02-07T03:19:56.557Z,14.40
2019-02-07T03:21:21.809Z,14.80
2019-02-07T03:22:35.035Z,14.85
2019-02-07T03:23:57.438Z,15.55
2019-02-07T03:25:18.852Z,14.87
2019-02-07T03:26:34.427Z,14.60
2019-02-07T03:27:56.545Z,14.83
2019-02-07T03:29:19.106Z,14.85
2019-02-07T03:30:42.282Z,14.38
2019-02-07T03:32:02.379Z,14.03
2019-02-07T03:33:16.242Z,15.50
2019-02-07T03:34:52.010Z,15.70
2019-02-07T03:36:16.192Z,14.30
2019-02-07T03:37:48.424Z,14.63
2019-02-07T03:39:01.949Z,14.53
2019-02-07T03:40:27.214Z,15.50
2019-02-07T03:41:48.886Z,13.45
2019-02-07T03:43:15.351Z,14.65
2019-02-07T03:44:41.626Z,13.20
2019-02-07T03:46:03.557Z,14.40
2019-02-07T03:47:14.601Z,13.32
2019-02-07T03:48:41.286Z,14.98
2019-02-07T03:49:58.865Z,13.65
2019-02-07T03:51:31.009Z,14.30
2019-02-07T03:52:46.999Z,13.90
2019-02-07T03:54:09.921Z,13.98
2019-02-07T03:55:38.975Z,13.65
2019-02-07T03:57:00.561Z,13.78
2019-02-07T03:58:20.646Z,13.35
2019-02-07T03:59:39.496Z,13.45
2019-02-07T04:01:02.514Z,12.80
2019-02-07T04:02:24.554Z,13.68
2019-02-07T04:03:45.697Z,13.55
2019-02-07T04:05:09.397Z,13.08
2019-02-07T04:06:21.082Z,13.65
2019-02-07T04:07:47.356Z,13.90
2019-02-07T04:09:19.729Z,12.85
2019-02-07T04:10:34.723Z,11.48
2019-02-07T04:11:54.796Z,13.38
2019-02-07T04:13:17.179Z,13.28
2019-02-07T04:14:49.308Z,13.32
2019-02-07T04:16:17.879Z,14.53
2019-02-07T04:17:46.915Z,12.73
2019-02-07T04:19:03.978Z,11.75
2019-02-07T04:20:27.229Z,12.98
2019-02-07T04:21:53.756Z,13.60
2019-02-07T04:23:16.370Z,13.70
2019-02-07T04:24:49.227Z,12.55
2019-02-07T04:26:11.108Z,12.25
2019-02-07T04:27:43.100Z,13.88
2019-02-07T04:29:12.962Z,13.32
2019-02-07T04:30:41.976Z,13.60
2019-02-07T04:32:15.322Z,13.00
2019-02-07T04:33:38.001Z,11.45
2019-02-07T04:35:16.902Z,12.55
2019-02-07T04:36:45.951Z,13.85
2019-02-07T04:38:05.861Z,12.90
2019-02-07T04:39:47.462Z,13.53
2019-02-07T04:41:22.583Z,11.80
2019-02-07T04:42:52.372Z,14.23
2019-02-07T04:44:18.880Z,13.18
2019-02-07T04:45:41.542Z,12.68
2019-02-07T04:46:58.887Z,13.22
2019-02-07T04:48:40.607Z,11.85
2019-02-07T04:50:10.670Z,13.10
2019-02-07T04:51:29.371Z,13.25
2019-02-07T04:53:01.947Z,12.35
2019-02-07T04:54:25.348Z,12.78
2019-02-07T04:55:47.415Z,12.63
2019-02-07T04:57:12.545Z,13.18
2019-02-07T04:58:41.850Z,13.50
2019-02-07T04:59:58.008Z,12.18
2019-02-07T05:01:33.174Z,13.20
2019-02-07T05:03:04.880Z,12.23
2019-02-07T05:04:19.948Z,12.58
2019-02-07T05:05:47.690Z,12.55
2019-02-07T05:07:13.945Z,12.85
2019-02-07T05:08:30.894Z,12.28
2019-02-07T05:10:12.524Z,12.60
2019-02-07T05:11:45.606Z,12.60
2019-02-07T05:13:08.920Z,10.23
2019-02-07T05:14:41.691Z,12.63
2019-02-07T05:16:20.285Z,12.18
2019-02-07T05:17:49.956Z,12.13
2019-02-07T05:19:14.113Z,13.13
2019-02-07T05:20:36.284Z,12.23
2019-02-07T05:21:58.978Z,11.25
2019-02-07T05:23:25.822Z,12.13
2019-02-07T05:24:48.582Z,11.48
2019-02-07T05:26:17.452Z,11.83
2019-02-07T05:27:48.066Z,12.00
2019-02-07T05:29:11.517Z,11.33
2019-02-07T05:30:33.181Z,11.70
2019-02-07T05:31:59.489Z,11.93
2019-02-07T05:33:17.398Z,12.20
2019-02-07T05:34:32.616Z,12.15
2019-02-07T05:35:56.160Z,11.78
2019-02-07T05:37:15.973Z,12.40
2019-02-07T05:38:33.184Z,13.05
2019-02-07T05:39:58.377Z,12.10
2019-02-07T05:41:24.735Z,11.53
2019-02-07T05:42:46.580Z,13.00
2019-02-07T05:44:09.010Z,12.00
2019-02-07T05:45:28.630Z,10.93
2019-02-07T05:46:51.349Z,11.60
2019-02-07T05:48:20.196Z,11.65
2019-02-07T05:49:46.875Z,12.68
2019-02-07T05:51:02.247Z,12.07
2019-02-07T05:52:15.026Z,11.65
2019-02-07T05:53:41.548Z,11.28
2019-02-07T05:55:03.875Z,12.10
2019-02-07T05:56:39.217Z,12.05
2019-02-07T05:58:01.249Z,11.45
2019-02-07T05:59:23.331Z,11.85
2019-02-07T06:00:47.267Z,11.95
2019-02-07T06:02:13.777Z,11.40
2019-02-07T06:03:37.023Z,12.28
2019-02-07T06:04:55.600Z,11.28
2019-02-07T06:06:27.864Z,11.48
2019-02-07T06:07:50.353Z,11.60
2019-02-07T06:09:12.453Z,11.05
2019-02-07T06:10:35.904Z,12.07
2019-02-07T06:12:02.137Z,11.88
2019-02-07T06:13:28.309Z,11.22
2019-02-07T06:14:54.104Z,11.10
2019-02-07T06:16:09.693Z,11.88
2019-02-07T06:17:31.889Z,10.70
2019-02-07T06:19:03.319Z,11.65
2019-02-07T06:20:25.458Z,10.82
2019-02-07T06:21:43.010Z,11.22
2019-02-07T06:23:05.946Z,11.10
2019-02-07T06:24:37.912Z,11.55
2019-02-07T06:26:01.239Z,11.85
2019-02-07T06:27:37.317Z,10.43
2019-02-07T06:28:59.338Z,11.43
2019-02-07T06:30:21.097Z,10.82
2019-02-07T06:31:53.390Z,10.68
2019-02-07T06:33:14.837Z,10.65
2019-02-07T06:34:43.823Z,11.28
2019-02-07T06:35:57.748Z,11.75
2019-02-07T06:37:12.575Z,10.58
2019-02-07T06:38:35.533Z,10.78
2019-02-07T06:40:18.124Z,10.30
2019-02-07T06:41:47.664Z,10.95
2019-02-07T06:43:00.062Z,10.58
2019-02-07T06:44:22.062Z,10.55
2019-02-07T06:45:46.026Z,10.70
2019-02-07T06:47:13.238Z,10.90
2019-02-07T06:48:31.136Z,10.38
2019-02-07T06:49:59.744Z,11.50
2019-02-07T06:51:12.191Z,11.35
2019-02-07T06:52:27.141Z,10.72
2019-02-07T06:53:41.172Z,10.98
2019-02-07T06:55:03.782Z,10.48
2019-02-07T06:56:32.797Z,9.73
2019-02-07T06:57:58.926Z,9.85
2019-02-07T06:59:19.627Z,11.33
2019-02-07T07:00:38.354Z,10.95
2019-02-07T07:01:55.169Z,10.35
2019-02-07T07:03:23.499Z,10.95
2019-02-07T07:04:58.458Z,10.78
2019-02-07T07:06:11.568Z,11.12
2019-02-07T07:07:47.016Z,11.30
2019-02-07T07:09:19.448Z,10.28
2019-02-07T07:10:41.924Z,10.75
2019-02-07T07:12:14.592Z,11.20
2019-02-07T07:13:31.151Z,10.20
2019-02-07T07:14:56.049Z,11.70
2019-02-07T07:16:19.271Z,12.05
2019-02-07T07:17:51.967Z,10.88
2019-02-07T07:19:18.058Z,11.35
2019-02-07T07:20:39.038Z,10.85
2019-02-07T07:22:00.951Z,11.93
2019-02-07T07:23:29.625Z,11.95
2019-02-07T07:24:51.691Z,11.78
2019-02-07T07:26:26.775Z,11.90
2019-02-07T07:27:48.954Z,11.70
2019-02-07T07:29:13.889Z,11.60
2019-02-07T07:30:46.499Z,11.20
2019-02-07T07:32:28.239Z,11.30
2019-02-07T07:33:43.113Z,11.10
2019-02-07T07:35:18.638Z,12.03
2019-02-07T07:36:56.973Z,10.90
2019-02-07T07:38:29.889Z,11.45
2019-02-07T07:39:51.952Z,11.35
2019-02-07T07:41:21.041Z,12.18
2019-02-07T07:42:37.526Z,11.60
2019-02-07T07:43:59.545Z,12.55
2019-02-07T07:45:16.646Z,12.07
2019-02-07T07:46:48.795Z,12.18
2019-02-07T07:48:12.055Z,12.30
2019-02-07T07:49:34.191Z,12.80
2019-02-07T07:50:54.783Z,12.40
2019-02-07T07:52:15.159Z,11.95
2019-02-07T07:53:47.029Z,11.38
2019-02-07T07:54:56.896Z,13.22
2019-02-07T07:56:26.212Z,11.90
2019-02-07T07:57:42.287Z,12.05
2019-02-07T07:59:05.306Z,11.80
2019-02-07T08:00:28.086Z,11.15
2019-02-07T08:01:49.316Z,11.35
2019-02-07T08:03:04.183Z,12.05
2019-02-07T08:04:30.198Z,12.47
2019-02-07T08:05:45.482Z,11.30
2019-02-07T08:07:21.250Z,11.40
2019-02-07T08:08:42.922Z,12.45
2019-02-07T08:10:05.272Z,11.85
2019-02-07T08:11:21.432Z,12.07
2019-02-07T08:12:42.457Z,11.48
2019-02-07T08:14:12.066Z,11.22
2019-02-07T08:15:25.646Z,11.48
2019-02-07T08:16:47.765Z,11.43
2019-02-07T08:18:29.561Z,11.00
2019-02-07T08:20:08.245Z,10.30
2019-02-07T08:21:35.648Z,10.63
2019-02-07T08:22:57.879Z,11.53
2019-02-07T08:24:21.259Z,10.65
2019-02-07T08:25:56.826Z,10.63
2019-02-07T08:27:23.039Z,11.03
2019-02-07T08:28:35.686Z,9.48
2019-02-07T08:29:58.596Z,10.60
2019-02-07T08:31:25.234Z,9.63
2019-02-07T08:32:51.225Z,10.48
2019-02-07T08:34:23.743Z,9.88
2019-02-07T08:35:56.730Z,9.50
2019-02-07T08:37:17.843Z,9.58
2019-02-07T08:38:43.561Z,9.43
2019-02-07T08:40:15.881Z,9.65
2019-02-07T08:41:32.118Z,9.15
2019-02-07T08:42:47.454Z,8.00
2019-02-07T08:44:13.836Z,8.90
2019-02-07T08:45:25.871Z,8.88
2019-02-07T08:46:48.228Z,8.28
2019-02-07T08:48:23.352Z,8.00
2019-02-07T08:49:52.915Z,6.58
2019-02-07T08:51:04.313Z,6.30
2019-02-07T08:52:26.267Z,6.03
2019-02-07T08:53:58.635Z,6.25
2019-02-07T08:55:26.041Z,4.95
2019-02-07T08:57:07.672Z,4.15
2019-02-07T08:58:33.587Z,4.15
2019-02-07T08:59:59.318Z,4.30
2019-02-07T09:01:31.617Z,3.55
2019-02-07T09:03:04.580Z,3.58
2019-02-07T09:04:33.759Z,3.52
2019-02-07T09:05:57.044Z,3.22
2019-02-07T09:07:23.449Z,3.45
2019-02-07T09:08:35.965Z,3.05
2019-02-07T09:10:11.120Z,2.87
2019-02-07T09:11:40.514Z,2.83
2019-02-07T09:13:04.034Z,2.60
2019-02-07T09:14:25.932Z,2.22
2019-02-07T09:15:45.713Z,2.55
2019-02-07T09:17:14.442Z,2.25
2019-02-07T09:18:52.396Z,2.25
2019-02-07T09:20:07.695Z,2.20
2019-02-07T09:21:23.928Z,2.40
2019-02-07T09:22:56.597Z,2.40
2019-02-07T09:24:33.199Z,1.92
2019-02-07T09:25:59.466Z,1.98
2019-02-07T09:27:29.092Z,1.90
2019-02-07T09:28:45.326Z,2.12
2019-02-07T09:30:11.079Z,2.40
2019-02-07T09:31:33.196Z,2.30
2019-02-07T09:32:54.785Z,2.58
2019-02-07T09:34:17.112Z,2.40
2019-02-07T09:35:40.311Z,2.75
2019-02-07T09:37:15.967Z,4.75
2019-02-07T09:38:46.413Z,3.12
2019-02-07T09:39:57.793Z,3.87
2019-02-07T09:41:20.970Z,3.37
2019-02-07T09:42:46.194Z,3.25
2019-02-07T09:44:12.451Z,3.15
2019-02-07T09:45:47.902Z,3.25
2019-02-07T09:47:14.318Z,2.80
2019-02-07T09:48:38.601Z,2.58
2019-02-07T09:50:00.941Z,4.08
2019-02-07T09:51:15.064Z,3.20
2019-02-07T09:52:47.892Z,3.45
2019-02-07T09:54:17.095Z,3.40
2019-02-07T09:55:44.581Z,3.02
2019-02-07T09:57:07.768Z,3.80
2019-02-07T09:58:34.255Z,2.77
2019-02-07T10:00:03.956Z,3.15
2019-02-07T10:01:33.549Z,3.00
2019-02-07T10:03:00.078Z,4.10
2019-02-07T10:04:29.957Z,3.72
2019-02-07T10:05:59.131Z,3.85
2019-02-07T10:07:17.012Z,3.42
2019-02-07T10:08:39.378Z,3.60
2019-02-07T10:10:01.244Z,3.12
2019-02-07T10:11:30.744Z,4.17
2019-02-07T10:12:52.625Z,4.08
2019-02-07T10:14:14.089Z,3.37
2019-02-07T10:15:37.629Z,2.90
2019-02-07T10:17:00.121Z,4.15
2019-02-07T10:18:35.421Z,4.25
2019-02-07T10:19:53.316Z,4.40
2019-02-07T10:21:05.752Z,4.20
2019-02-07T10:22:27.556Z,3.12
2019-02-07T10:23:57.302Z,4.05
2019-02-07T10:25:23.867Z,3.37
2019-02-07T10:27:05.968Z,3.37
2019-02-07T10:28:24.336Z,3.80
2019-02-07T10:29:56.396Z,3.35
2019-02-07T10:31:19.214Z,3.65
2019-02-07T10:32:32.158Z,3.20
2019-02-07T10:34:13.470Z,3.72
2019-02-07T10:35:46.035Z,3.65
2019-02-07T10:37:27.368Z,3.05
2019-02-07T10:38:56.456Z,3.50
2019-02-07T10:40:28.769Z,4.05
2019-02-07T10:41:51.989Z,3.92
2019-02-07T10:43:18.118Z,3.67
2019-02-07T10:44:47.878Z,3.33
2019-02-07T10:46:11.470Z,2.98
2019-02-07T10:47:52.698Z,3.45
2019-02-07T10:49:22.513Z,3.62
2019-02-07T10:50:45.118Z,3.17
2019-02-07T10:51:57.759Z,3.55
2019-02-07T10:53:22.778Z,3.62
2019-02-07T10:54:40.725Z,3.37
2019-02-07T10:56:02.819Z,4.30
2019-02-07T10:57:28.103Z,3.02
2019-02-07T10:58:50.278Z,3.30
2019-02-07T11:00:16.047Z,3.52
2019-02-07T11:01:38.264Z,3.58
2019-02-07T11:02:54.874Z,3.83
2019-02-07T11:04:19.501Z,4.08
2019-02-07T11:05:41.856Z,3.02
2019-02-07T11:07:06.709Z,3.85
2019-02-07T11:08:32.723Z,4.35
2019-02-07T11:10:08.279Z,2.87
2019-02-07T11:11:41.098Z,3.37
2019-02-07T11:13:10.328Z,3.45
2019-02-07T11:14:51.991Z,3.45
2019-02-07T11:16:14.938Z,2.87
2019-02-07T11:17:37.032Z,3.80
2019-02-07T11:18:56.969Z,3.22
2019-02-07T11:20:20.287Z,3.92
2019-02-07T11:21:47.839Z,3.40
2019-02-07T11:23:14.362Z,3.33
2019-02-07T11:24:52.085Z,3.67
2019-02-07T11:26:14.458Z,3.67
2019-02-07T11:27:46.860Z,3.17
2019-02-07T11:29:13.069Z,3.62
2019-02-07T11:30:31.590Z,2.83
2019-02-07T11:31:44.783Z,3.10
2019-02-07T11:33:00.706Z,3.33
2019-02-07T11:34:23.652Z,3.72
2019-02-07T11:35:45.599Z,3.33
2019-02-07T11:37:11.916Z,2.90
2019-02-07T11:38:35.361Z,3.00
2019-02-07T11:39:46.848Z,3.55
2019-02-07T11:41:10.435Z,2.75
2019-02-07T11:42:46.638Z,3.22
2019-02-07T11:44:09.571Z,3.22
2019-02-07T11:45:30.910Z,2.55
2019-02-07T11:46:44.840Z,3.12
2019-02-07T11:48:06.293Z,3.58
2019-02-07T11:49:18.028Z,3.37
2019-02-07T11:50:50.427Z,3.25
2019-02-07T11:52:07.493Z,2.95
2019-02-07T11:53:46.372Z,2.80
2019-02-07T11:54:59.865Z,2.65
2019-02-07T11:56:28.540Z,3.25
2019-02-07T11:57:50.916Z,3.40
2019-02-07T11:59:13.209Z,3.25
2019-02-07T12:00:29.786Z,3.50
2019-02-07T12:01:47.419Z,3.05
2019-02-07T12:03:19.818Z,2.92
2019-02-07T12:04:35.127Z,3.67
2019-02-07T12:05:57.204Z,3.35
2019-02-07T12:07:18.958Z,2.80
2019-02-07T12:08:41.058Z,3.50
2019-02-07T12:10:02.522Z,3.67
2019-02-07T12:11:29.585Z,2.62
2019-02-07T12:12:49.323Z,2.75
2019-02-07T12:14:16.686Z,2.95
2019-02-07T12:15:42.796Z,2.60
2019-02-07T12:17:01.946Z,2.25
2019-02-07T12:18:19.280Z,2.83
2019-02-07T12:19:45.517Z,3.45
2019-02-07T12:21:14.651Z,2.75
2019-02-07T12:22:29.646Z,3.00
2019-02-07T12:23:52.059Z,3.10
2019-02-07T12:25:27.815Z,2.62
2019-02-07T12:26:54.279Z,2.55
2019-02-07T12:28:12.466Z,3.55
2019-02-07T12:29:32.031Z,2.75
2019-02-07T12:30:58.351Z,2.90
2019-02-07T12:32:19.863Z,3.98
2019-02-07T12:33:41.745Z,2.85
2019-02-07T12:35:14.224Z,3.30
2019-02-07T12:36:35.661Z,3.10
2019-02-07T12:37:58.632Z,2.95
2019-02-07T12:39:31.439Z,2.95
2019-02-07T12:40:56.939Z,2.80
2019-02-07T12:42:27.709Z,2.80
2019-02-07T12:43:50.898Z,2.30
2019-02-07T12:45:13.643Z,3.12
2019-02-07T12:46:46.669Z,2.95
2019-02-07T12:48:09.449Z,3.10
2019-02-07T12:49:29.485Z,2.67
2019-02-07T12:50:56.150Z,2.37
2019-02-07T12:52:10.085Z,2.60
2019-02-07T12:53:39.102Z,3.20
2019-02-07T12:54:57.497Z,2.22
2019-02-07T12:56:18.186Z,3.00
2019-02-07T12:58:00.547Z,2.20
2019-02-07T12:59:32.626Z,2.50
2019-02-07T13:00:56.842Z,2.62
2019-02-07T13:02:18.898Z,2.52
2019-02-07T13:03:43.219Z,2.65
2019-02-07T13:05:05.678Z,2.62
2019-02-07T13:06:28.087Z,2.47
2019-02-07T13:07:53.225Z,2.25
2019-02-07T13:09:17.253Z,2.40
2019-02-07T13:10:46.481Z,2.30
2019-02-07T13:12:03.169Z,2.47
2019-02-07T13:13:17.943Z,2.00
2019-02-07T13:14:53.751Z,2.02
2019-02-07T13:16:12.292Z,2.60
2019-02-07T13:17:37.369Z,2.65
2019-02-07T13:18:55.034Z,1.82
2019-02-07T13:20:18.448Z,2.60
2019-02-07T13:21:41.926Z,2.37
2019-02-07T13:23:05.162Z,2.37
2019-02-07T13:24:27.555Z,2.58
2019-02-07T13:26:05.972Z,2.02
2019-02-07T13:27:28.598Z,2.40
2019-02-07T13:28:47.209Z,2.17
2019-02-07T13:30:08.764Z,2.40
2019-02-07T13:31:37.780Z,2.15
2019-02-07T13:33:10.224Z,2.10
2019-02-07T13:34:32.185Z,2.30
2019-02-07T13:35:54.218Z,2.10
2019-02-07T13:37:17.777Z,2.27
2019-02-07T13:38:39.466Z,2.35
2019-02-07T13:40:01.771Z,2.50
2019-02-07T13:41:22.707Z,1.80
2019-02-07T13:42:46.188Z,2.20
2019-02-07T13:44:13.289Z,2.65
2019-02-07T13:45:28.066Z,2.15
2019-02-07T13:46:51.510Z,2.55
2019-02-07T13:48:20.698Z,2.62
2019-02-07T13:49:51.716Z,2.58
2019-02-07T13:51:23.298Z,2.47
2019-02-07T13:52:55.746Z,2.50
2019-02-07T13:54:11.016Z,1.95
2019-02-07T13:55:52.945Z,2.22
2019-02-07T13:57:15.071Z,2.17
2019-02-07T13:58:34.602Z,2.10
2019-02-07T14:00:13.133Z,2.62
2019-02-07T14:01:35.813Z,2.20
2019-02-07T14:03:05.620Z,2.15
2019-02-07T14:04:37.807Z,2.70
2019-02-07T14:06:04.124Z,2.40
2019-02-07T14:07:30.097Z,2.45
2019-02-07T14:08:52.541Z,2.02
2019-02-07T14:10:18.715Z,2.33
2019-02-07T14:11:40.874Z,2.83
2019-02-07T14:13:07.362Z,2.37
2019-02-07T14:14:18.213Z,1.75
2019-02-07T14:15:44.823Z,1.98
2019-02-07T14:17:14.483Z,2.15
2019-02-07T14:18:56.193Z,2.55
2019-02-07T14:20:19.010Z,2.08
2019-02-07T14:21:41.499Z,2.17
2019-02-07T14:23:10.754Z,2.25
2019-02-07T14:24:24.702Z,1.70
2019-02-07T14:25:40.841Z,2.00
2019-02-07T14:27:04.070Z,1.62
2019-02-07T14:28:14.725Z,2.27
2019-02-07T14:29:47.352Z,2.27
2019-02-07T14:31:09.904Z,1.70
2019-02-07T14:32:36.257Z,2.05
2019-02-07T14:33:58.853Z,2.35
2019-02-07T14:35:15.209Z,1.95
2019-02-07T14:36:45.597Z,2.08
2019-02-07T14:38:10.369Z,2.30
2019-02-07T14:39:32.528Z,1.98
2019-02-07T14:40:51.071Z,2.20
2019-02-07T14:42:23.865Z,2.15
2019-02-07T14:43:38.684Z,2.33
2019-02-07T14:44:54.894Z,1.62
2019-02-07T14:46:14.948Z,2.10
2019-02-07T14:47:19.089Z,2.15
2019-02-07T14:48:27.271Z,1.80
2019-02-07T14:49:32.159Z,2.05
2019-02-07T14:50:36.664Z,2.00
2019-02-07T14:51:41.634Z,1.80
2019-02-07T14:52:46.951Z,1.98
2019-02-07T14:53:51.248Z,2.02
2019-02-07T14:54:57.533Z,1.75
2019-02-07T14:56:02.518Z,2.20
2019-02-07T14:57:07.361Z,1.82
2019-02-07T14:58:11.974Z,1.70
2019-02-07T14:59:16.523Z,2.25
2019-02-07T15:00:23.085Z,2.00
2019-02-07T15:01:28.229Z,1.75
2019-02-07T15:02:32.803Z,2.52
2019-02-07T15:03:37.342Z,2.40
2019-02-07T15:04:41.670Z,1.92
2019-02-07T15:05:46.286Z,1.87
2019-02-07T15:06:50.982Z,1.80
2019-02-07T15:07:55.558Z,2.50
2019-02-07T15:09:00.714Z,2.25
2019-02-07T15:10:06.346Z,2.20
2019-02-07T15:11:11.329Z,2.10
2019-02-07T15:12:15.891Z,1.72
2019-02-07T15:13:20.019Z,2.10
2019-02-07T15:14:24.628Z,1.95
2019-02-07T15:15:29.189Z,2.05
2019-02-07T15:16:33.351Z,2.05
2019-02-07T15:17:38.227Z,2.02
2019-02-07T15:18:42.540Z,2.17
2019-02-07T15:19:47.395Z,2.15
2019-02-07T15:20:52.538Z,2.02
2019-02-07T15:21:56.838Z,1.80
2019-02-07T15:23:01.440Z,1.85
2019-02-07T15:24:08.424Z,2.80
2019-02-07T15:25:12.853Z,2.55
2019-02-07T15:26:17.773Z,2.10
2019-02-07T15:27:23.060Z,2.05
2019-02-07T15:28:27.944Z,2.08
2019-02-07T15:29:32.232Z,2.10
2019-02-07T15:30:36.711Z,2.12
2019-02-07T15:31:41.040Z,1.98
2019-02-07T15:32:45.111Z,2.08
2019-02-07T15:33:49.508Z,2.12
2019-02-07T15:34:54.108Z,1.65
2019-02-07T15:35:59.026Z,2.00
2019-02-07T15:37:03.724Z,1.87
2019-02-07T15:38:08.336Z,2.55
2019-02-07T15:39:14.869Z,2.58
2019-02-07T15:40:19.797Z,2.15
2019-02-07T15:41:24.998Z,2.08
2019-02-07T15:42:29.651Z,2.50
2019-02-07T15:43:34.510Z,2.33
2019-02-07T15:44:39.187Z,2.17
2019-02-07T15:45:44.441Z,1.90
2019-02-07T15:46:49.576Z,2.02
2019-02-07T15:47:54.745Z,1.95
2019-02-07T15:48:59.127Z,1.90
2019-02-07T15:50:03.713Z,1.90
2019-02-07T15:51:08.321Z,2.20
2019-02-07T15:52:12.921Z,1.55
2019-02-07T15:53:17.294Z,1.70
2019-02-07T15:54:21.899Z,1.90
2019-02-07T15:55:26.201Z,2.40
2019-02-07T15:56:30.891Z,1.98
2019-02-07T15:57:35.484Z,1.75
2019-02-07T15:58:59.119Z,1.65
2019-02-07T16:00:11.167Z,2.10
2019-02-07T16:01:23.864Z,1.70
2019-02-07T16:02:38.210Z,2.10
2019-02-07T16:03:51.917Z,1.98
2019-02-07T16:04:56.501Z,1.75
2019-02-07T16:06:01.359Z,1.95
2019-02-07T16:07:07.205Z,2.20
2019-02-07T16:08:11.579Z,1.60
2019-02-07T16:09:16.428Z,1.80
2019-02-07T16:10:21.285Z,1.98
2019-02-07T16:11:26.120Z,1.90
2019-02-07T16:12:30.476Z,2.02
2019-02-07T16:13:35.733Z,2.27
2019-02-07T16:14:40.676Z,2.47
2019-02-07T16:15:45.295Z,2.10
2019-02-07T16:16:49.575Z,2.52
2019-02-07T16:17:54.619Z,2.02
2019-02-07T16:18:58.710Z,2.67
2019-02-07T16:20:02.985Z,2.12
2019-02-07T16:21:07.570Z,2.02
2019-02-07T16:22:11.920Z,1.98
2019-02-07T16:23:16.475Z,2.08
2019-02-07T16:24:21.076Z,1.80
2019-02-07T16:25:25.944Z,1.87
2019-02-07T16:26:30.502Z,1.82
2019-02-07T16:27:35.564Z,1.77
2019-02-07T16:28:39.967Z,2.12
2019-02-07T16:29:44.854Z,2.17
2019-02-07T16:30:49.435Z,2.05
2019-02-07T16:31:53.738Z,2.12
2019-02-07T16:32:58.309Z,1.95
2019-02-07T16:34:03.293Z,2.65
2019-02-07T16:35:08.064Z,1.87
2019-02-07T16:36:12.359Z,1.87
2019-02-07T16:37:16.757Z,2.25
2019-02-07T16:38:21.416Z,2.10
2019-02-07T16:39:26.248Z,2.17
2019-02-07T16:40:31.115Z,2.62
2019-02-07T16:41:35.750Z,2.20
2019-02-07T16:42:40.103Z,1.50
2019-02-07T16:43:44.384Z,1.82
2019-02-07T16:44:48.770Z,1.82
2019-02-07T16:45:53.376Z,1.90
2019-02-07T16:46:57.980Z,2.35
2019-02-07T16:48:02.642Z,1.60
2019-02-07T16:49:07.038Z,2.20
2019-02-07T16:50:13.615Z,1.92
2019-02-07T16:51:17.898Z,1.72
2019-02-07T16:52:22.541Z,2.15
2019-02-07T16:53:27.788Z,2.25
2019-02-07T16:54:32.914Z,1.60
2019-02-07T16:55:37.766Z,2.25
2019-02-07T16:56:42.158Z,2.08
2019-02-07T16:57:46.715Z,2.20
2019-02-07T16:58:51.366Z,2.15
2019-02-07T16:59:55.415Z,1.85
2019-02-07T17:00:59.714Z,1.98
2019-02-07T17:02:03.740Z,1.87
2019-02-07T17:03:08.380Z,2.10
2019-02-07T17:04:12.931Z,1.87
2019-02-07T17:05:18.390Z,1.72
2019-02-07T17:06:23.217Z,1.82
2019-02-07T17:07:28.075Z,1.52
2019-02-07T17:08:32.353Z,2.10
2019-02-07T17:09:41.330Z,2.10
2019-02-07T17:10:45.903Z,1.75
2019-02-07T17:11:50.236Z,1.90
2019-02-07T17:12:54.519Z,2.35
2019-02-07T17:13:59.085Z,1.85
2019-02-07T17:15:03.675Z,1.72
2019-02-07T17:16:08.281Z,2.37
2019-02-07T17:17:13.136Z,1.72
2019-02-07T17:18:17.747Z,1.85
2019-02-07T17:19:22.595Z,2.00
2019-02-07T17:20:28.521Z,1.87
2019-02-07T17:21:33.708Z,2.35
2019-02-07T17:22:38.066Z,2.02
2019-02-07T17:23:42.643Z,2.42
2019-02-07T17:24:47.567Z,1.87
2019-02-07T17:25:52.279Z,2.42
2019-02-07T17:26:57.126Z,1.90
2019-02-07T17:28:01.704Z,2.75
2019-02-07T17:29:06.498Z,3.17
2019-02-07T17:30:15.680Z,2.40
2019-02-07T17:31:20.245Z,2.40
2019-02-07T17:32:25.104Z,2.40
2019-02-07T17:33:29.662Z,2.20
2019-02-07T17:34:34.221Z,2.12
2019-02-07T17:35:38.788Z,2.40
2019-02-07T17:36:43.623Z,2.22
2019-02-07T17:37:48.559Z,2.40
2019-02-07T17:38:53.151Z,2.12
2019-02-07T17:39:57.716Z,2.27
2019-02-07T17:41:02.899Z,2.20
2019-02-07T17:42:07.818Z,2.50
2019-02-07T17:43:13.217Z,2.83
2019-02-07T17:44:17.547Z,2.30
2019-02-07T17:45:24.010Z,3.05
2019-02-07T17:46:28.295Z,2.80
2019-02-07T17:47:33.258Z,2.72
2019-02-07T17:48:37.570Z,2.95